sensor_id;sensor_type;location;lat;lon;timestamp;pressure;altitude;pressure_sealevel;temperature;humidity
25156;BME280;71253;51.496;7.606;2023-10-13T00:00:29;99891.69;;;15.72;100.00
25156;BME280;71253;51.496;7.606;2023-10-13T00:05:32;99881.41;;;15.65;100.00
25156;BME280;71253;51.496;7.606;2023-10-13T00:10:34;99879.72;;;15.62;100.00
25156;BME280;71253;51.496;7.606;2023-10-13T00:15:42;99874.50;;;15.62;100.00
25156;BME280;71253;51.496;7.606;2023-10-13T00:20:44;99871.94;;;15.61;100.00
25156;BME280;71253;51.496;7.606;2023-10-13T00:25:48;99867.53;;;15.64;100.00
25156;BME280;71253;51.496;7.606;2023-10-13T00:30:51;99859.53;;;15.72;100.00
25156;BME280;71253;51.496;7.606;2023-10-13T00:35:52;99851.72;;;15.70;100.00
25156;BME280;71253;51.496;7.606;2023-10-13T00:40:54;99847.25;;;15.75;100.00
25156;BME280;71253;51.496;7.606;2023-10-13T00:45:58;99847.09;;;15.83;100.00
25156;BME280;71253;51.496;7.606;2023-10-13T00:51:04;99832.19;;;15.87;100.00
25156;BME280;71253;51.496;7.606;2023-10-13T00:56:07;99823.56;;;15.85;100.00
25156;BME280;71253;51.496;7.606;2023-10-13T01:01:09;99821.78;;;15.87;100.00
25156;BME280;71253;51.496;7.606;2023-10-13T01:06:12;99828.84;;;15.82;100.00
25156;BME280;71253;51.496;7.606;2023-10-13T01:11:14;99830.59;;;15.83;100.00
25156;BME280;71253;51.496;7.606;2023-10-13T01:16:17;99823.41;;;15.91;100.00
25156;BME280;71253;51.496;7.606;2023-10-13T01:21:19;99806.84;;;15.93;100.00
25156;BME280;71253;51.496;7.606;2023-10-13T01:26:22;99798.19;;;15.91;100.00
25156;BME280;71253;51.496;7.606;2023-10-13T01:31:24;99809.47;;;15.92;100.00
25156;BME280;71253;51.496;7.606;2023-10-13T01:36:27;99805.25;;;15.86;100.00
25156;BME280;71253;51.496;7.606;2023-10-13T01:41:29;99793.91;;;15.89;100.00
25156;BME280;71253;51.496;7.606;2023-10-13T01:46:30;99775.44;;;15.96;100.00
25156;BME280;71253;51.496;7.606;2023-10-13T01:51:32;99772.75;;;15.99;100.00
25156;BME280;71253;51.496;7.606;2023-10-13T01:56:34;99767.50;;;16.01;100.00
25156;BME280;71253;51.496;7.606;2023-10-13T02:01:35;99768.13;;;16.09;100.00
25156;BME280;71253;51.496;7.606;2023-10-13T02:06:37;99774.34;;;16.05;100.00
25156;BME280;71253;51.496;7.606;2023-10-13T02:11:40;99757.13;;;15.98;100.00
25156;BME280;71253;51.496;7.606;2023-10-13T02:16:43;99752.91;;;15.94;100.00
25156;BME280;71253;51.496;7.606;2023-10-13T02:21:45;99738.84;;;15.98;100.00
25156;BME280;71253;51.496;7.606;2023-10-13T02:26:48;99739.00;;;15.93;100.00
25156;BME280;71253;51.496;7.606;2023-10-13T02:31:50;99737.13;;;15.98;100.00
25156;BME280;71253;51.496;7.606;2023-10-13T02:36:52;99730.19;;;15.97;100.00
25156;BME280;71253;51.496;7.606;2023-10-13T02:41:54;99715.09;;;16.09;100.00
25156;BME280;71253;51.496;7.606;2023-10-13T02:46:56;99711.63;;;16.08;100.00
25156;BME280;71253;51.496;7.606;2023-10-13T02:51:58;99701.19;;;16.08;100.00
25156;BME280;71253;51.496;7.606;2023-10-13T02:56:59;99710.88;;;16.04;100.00
25156;BME280;71253;51.496;7.606;2023-10-13T03:02:01;99694.94;;;16.14;100.00
25156;BME280;71253;51.496;7.606;2023-10-13T03:07:03;99694.94;;;16.14;100.00
25156;BME280;71253;51.496;7.606;2023-10-13T03:12:05;99702.75;;;16.15;100.00
25156;BME280;71253;51.496;7.606;2023-10-13T03:17:07;99681.16;;;16.09;100.00
25156;BME280;71253;51.496;7.606;2023-10-13T03:22:10;99668.16;;;16.07;100.00
25156;BME280;71253;51.496;7.606;2023-10-13T03:27:17;99657.53;;;16.13;100.00
25156;BME280;71253;51.496;7.606;2023-10-13T03:32:19;99656.63;;;16.16;100.00
25156;BME280;71253;51.496;7.606;2023-10-13T03:37:22;99645.44;;;16.11;100.00
25156;BME280;71253;51.496;7.606;2023-10-13T03:42:24;99650.06;;;16.01;100.00
25156;BME280;71253;51.496;7.606;2023-10-13T03:47:25;99639.81;;;15.95;100.00
25156;BME280;71253;51.496;7.606;2023-10-13T03:52:27;99645.22;;;15.89;100.00
25156;BME280;71253;51.496;7.606;2023-10-13T03:57:29;99642.72;;;15.84;100.00
25156;BME280;71253;51.496;7.606;2023-10-13T04:02:30;99616.81;;;15.78;100.00
25156;BME280;71253;51.496;7.606;2023-10-13T04:07:32;99611.59;;;15.76;100.00
25156;BME280;71253;51.496;7.606;2023-10-13T04:12:34;99601.19;;;15.76;100.00
25156;BME280;71253;51.496;7.606;2023-10-13T04:17:35;99601.22;;;15.75;100.00
25156;BME280;71253;51.496;7.606;2023-10-13T04:22:41;99591.53;;;15.80;100.00
25156;BME280;71253;51.496;7.606;2023-10-13T04:27:43;99573.91;;;15.88;100.00
25156;BME280;71253;51.496;7.606;2023-10-13T04:32:45;99575.66;;;15.88;100.00
25156;BME280;71253;51.496;7.606;2023-10-13T04:37:46;99552.13;;;15.89;100.00
25156;BME280;71253;51.496;7.606;2023-10-13T04:42:48;99550.28;;;15.93;100.00
25156;BME280;71253;51.496;7.606;2023-10-13T04:47:50;99544.94;;;15.97;100.00
25156;BME280;71253;51.496;7.606;2023-10-13T04:52:51;99542.28;;;15.99;100.00
25156;BME280;71253;51.496;7.606;2023-10-13T04:57:53;99520.22;;;16.09;100.00
25156;BME280;71253;51.496;7.606;2023-10-13T05:02:55;99522.75;;;16.12;100.00
25156;BME280;71253;51.496;7.606;2023-10-13T05:07:58;99509.88;;;16.06;100.00
25156;BME280;71253;51.496;7.606;2023-10-13T05:12:59;99501.72;;;16.17;100.00
25156;BME280;71253;51.496;7.606;2023-10-13T05:18:01;99505.13;;;16.19;100.00
25156;BME280;71253;51.496;7.606;2023-10-13T05:23:03;99512.69;;;16.28;100.00
25156;BME280;71253;51.496;7.606;2023-10-13T05:28:04;99496.44;;;16.18;100.00
25156;BME280;71253;51.496;7.606;2023-10-13T05:33:07;99495.72;;;16.15;100.00
25156;BME280;71253;51.496;7.606;2023-10-13T05:38:29;99482.75;;;16.12;100.00
25156;BME280;71253;51.496;7.606;2023-10-13T05:43:31;99487.00;;;16.14;100.00
25156;BME280;71253;51.496;7.606;2023-10-13T05:48:33;99479.03;;;16.19;100.00
25156;BME280;71253;51.496;7.606;2023-10-13T05:53:35;99485.78;;;16.26;100.00
25156;BME280;71253;51.496;7.606;2023-10-13T05:58:39;99477.19;;;16.22;100.00
25156;BME280;71253;51.496;7.606;2023-10-13T06:03:40;99484.97;;;16.24;100.00
25156;BME280;71253;51.496;7.606;2023-10-13T06:08:42;99495.47;;;16.22;100.00
25156;BME280;71253;51.496;7.606;2023-10-13T06:13:44;99511.00;;;16.25;100.00
25156;BME280;71253;51.496;7.606;2023-10-13T06:18:46;99489.31;;;16.23;100.00
25156;BME280;71253;51.496;7.606;2023-10-13T06:23:47;99498.84;;;16.24;100.00
25156;BME280;71253;51.496;7.606;2023-10-13T06:28:49;99507.50;;;16.26;100.00
25156;BME280;71253;51.496;7.606;2023-10-13T06:33:51;99513.28;;;16.36;100.00
25156;BME280;71253;51.496;7.606;2023-10-13T06:38:52;99506.91;;;16.45;100.00
25156;BME280;71253;51.496;7.606;2023-10-13T06:43:54;99496.22;;;16.52;100.00
25156;BME280;71253;51.496;7.606;2023-10-13T06:48:56;99484.03;;;16.53;100.00
25156;BME280;71253;51.496;7.606;2023-10-13T06:53:57;99461.53;;;16.49;100.00
25156;BME280;71253;51.496;7.606;2023-10-13T06:58:59;99463.22;;;16.50;100.00
25156;BME280;71253;51.496;7.606;2023-10-13T07:04:01;99452.56;;;16.56;100.00
25156;BME280;71253;51.496;7.606;2023-10-13T07:09:02;99442.75;;;16.64;100.00
25156;BME280;71253;51.496;7.606;2023-10-13T07:14:04;99446.88;;;16.71;100.00
25156;BME280;71253;51.496;7.606;2023-10-13T07:19:06;99452.88;;;16.73;100.00
25156;BME280;71253;51.496;7.606;2023-10-13T07:24:08;99441.06;;;16.88;100.00
25156;BME280;71253;51.496;7.606;2023-10-13T07:29:10;99443.06;;;17.05;100.00
25156;BME280;71253;51.496;7.606;2023-10-13T07:34:12;99442.84;;;17.11;100.00
25156;BME280;71253;51.496;7.606;2023-10-13T07:39:13;99441.59;;;17.21;100.00
25156;BME280;71253;51.496;7.606;2023-10-13T07:44:22;99437.91;;;17.50;100.00
25156;BME280;71253;51.496;7.606;2023-10-13T07:49:27;99432.25;;;17.61;100.00
25156;BME280;71253;51.496;7.606;2023-10-13T07:54:29;99422.47;;;17.66;100.00
25156;BME280;71253;51.496;7.606;2023-10-13T07:59:31;99421.50;;;17.69;100.00
25156;BME280;71253;51.496;7.606;2023-10-13T08:04:32;99420.31;;;17.77;100.00
25156;BME280;71253;51.496;7.606;2023-10-13T08:09:34;99405.13;;;17.87;100.00
25156;BME280;71253;51.496;7.606;2023-10-13T08:14:35;99404.81;;;17.95;100.00
25156;BME280;71253;51.496;7.606;2023-10-13T08:19:39;99401.16;;;17.99;100.00
25156;BME280;71253;51.496;7.606;2023-10-13T08:24:41;99394.34;;;17.95;100.00
25156;BME280;71253;51.496;7.606;2023-10-13T08:29:46;99387.28;;;17.97;100.00
25156;BME280;71253;51.496;7.606;2023-10-13T08:34:48;99384.31;;;18.06;100.00
25156;BME280;71253;51.496;7.606;2023-10-13T08:44:55;99364.22;;;19.44;92.86
25156;BME280;71253;51.496;7.606;2023-10-13T08:49:56;99363.41;;;20.16;86.64
25156;BME280;71253;51.496;7.606;2023-10-13T08:54:59;99359.16;;;20.48;84.47
25156;BME280;71253;51.496;7.606;2023-10-13T09:00:00;99362.88;;;20.62;82.54
25156;BME280;71253;51.496;7.606;2023-10-13T09:05:02;99354.75;;;20.49;83.40
25156;BME280;71253;51.496;7.606;2023-10-13T09:10:04;99348.16;;;20.75;82.10
25156;BME280;71253;51.496;7.606;2023-10-13T09:15:08;99339.66;;;21.19;77.34
25156;BME280;71253;51.496;7.606;2023-10-13T09:20:10;99324.31;;;21.27;76.71
25156;BME280;71253;51.496;7.606;2023-10-13T09:25:11;99326.25;;;21.08;76.48
25156;BME280;71253;51.496;7.606;2023-10-13T09:30:13;99311.63;;;20.86;77.39
25156;BME280;71253;51.496;7.606;2023-10-13T09:35:17;99299.41;;;21.80;70.89
25156;BME280;71253;51.496;7.606;2023-10-13T09:40:19;99285.47;;;22.24;69.66
25156;BME280;71253;51.496;7.606;2023-10-13T09:45:27;99284.44;;;22.41;69.04
25156;BME280;71253;51.496;7.606;2023-10-13T09:50:29;99284.16;;;22.74;66.98
25156;BME280;71253;51.496;7.606;2023-10-13T09:55:42;99277.38;;;22.84;64.31
25156;BME280;71253;51.496;7.606;2023-10-13T10:00:48;99271.16;;;22.71;64.27
25156;BME280;71253;51.496;7.606;2023-10-13T10:05:58;99274.53;;;22.44;65.42
25156;BME280;71253;51.496;7.606;2023-10-13T10:16:33;99246.22;;;22.91;59.13
25156;BME280;71253;51.496;7.606;2023-10-13T10:21:36;99257.59;;;23.05;61.03
25156;BME280;71253;51.496;7.606;2023-10-13T10:26:38;99260.44;;;23.29;61.73
25156;BME280;71253;51.496;7.606;2023-10-13T10:31:40;99242.34;;;23.77;58.51
25156;BME280;71253;51.496;7.606;2023-10-13T10:36:42;99254.50;;;23.80;58.46
25156;BME280;71253;51.496;7.606;2023-10-13T10:41:44;99257.19;;;23.12;59.63
25156;BME280;71253;51.496;7.606;2023-10-13T10:46:45;99269.00;;;22.92;60.47
25156;BME280;71253;51.496;7.606;2023-10-13T10:51:47;99249.88;;;23.56;59.13
25156;BME280;71253;51.496;7.606;2023-10-13T10:56:49;99257.75;;;23.44;59.54
25156;BME280;71253;51.496;7.606;2023-10-13T11:01:56;99222.78;;;23.40;58.57
25156;BME280;71253;51.496;7.606;2023-10-13T11:06:58;99233.19;;;23.29;61.19
25156;BME280;71253;51.496;7.606;2023-10-13T11:17:07;99209.28;;;22.91;62.10
25156;BME280;71253;51.496;7.606;2023-10-13T11:22:16;99202.09;;;23.07;61.78
25156;BME280;71253;51.496;7.606;2023-10-13T11:27:18;99199.13;;;22.70;62.82
25156;BME280;71253;51.496;7.606;2023-10-13T11:32:20;99187.75;;;22.55;64.97
25156;BME280;71253;51.496;7.606;2023-10-13T11:37:22;99178.31;;;22.66;61.83
25156;BME280;71253;51.496;7.606;2023-10-13T11:42:23;99154.59;;;22.66;61.34
25156;BME280;71253;51.496;7.606;2023-10-13T11:47:25;99190.19;;;22.73;61.49
25156;BME280;71253;51.496;7.606;2023-10-13T11:52:27;99150.88;;;22.82;60.99
25156;BME280;71253;51.496;7.606;2023-10-13T11:57:28;99141.34;;;22.53;61.96
25156;BME280;71253;51.496;7.606;2023-10-13T12:02:30;99142.53;;;22.62;62.09
25156;BME280;71253;51.496;7.606;2023-10-13T12:07:32;99127.94;;;22.70;61.44
25156;BME280;71253;51.496;7.606;2023-10-13T12:12:33;99124.41;;;22.84;60.77
25156;BME280;71253;51.496;7.606;2023-10-13T12:17:36;99110.25;;;22.99;61.02
25156;BME280;71253;51.496;7.606;2023-10-13T12:22:38;99107.53;;;23.01;60.98
25156;BME280;71253;51.496;7.606;2023-10-13T12:27:40;99095.03;;;22.90;62.34
25156;BME280;71253;51.496;7.606;2023-10-13T12:32:41;99093.28;;;23.03;63.07
25156;BME280;71253;51.496;7.606;2023-10-13T12:37:43;99096.97;;;22.87;61.55
25156;BME280;71253;51.496;7.606;2023-10-13T12:42:45;99099.59;;;22.74;62.04
25156;BME280;71253;51.496;7.606;2023-10-13T12:47:47;99090.06;;;22.71;61.56
25156;BME280;71253;51.496;7.606;2023-10-13T12:52:51;99085.94;;;22.40;61.24
25156;BME280;71253;51.496;7.606;2023-10-13T12:57:53;99071.72;;;22.43;62.70
25156;BME280;71253;51.496;7.606;2023-10-13T13:02:54;99059.72;;;22.24;61.81
25156;BME280;71253;51.496;7.606;2023-10-13T13:07:56;99069.38;;;22.10;64.14
25156;BME280;71253;51.496;7.606;2023-10-13T13:12:57;99072.03;;;21.95;64.94
25156;BME280;71253;51.496;7.606;2023-10-13T13:17:59;99085.91;;;22.13;64.14
25156;BME280;71253;51.496;7.606;2023-10-13T13:23:03;99075.81;;;22.20;64.25
25156;BME280;71253;51.496;7.606;2023-10-13T13:28:05;99076.91;;;22.01;64.35
25156;BME280;71253;51.496;7.606;2023-10-13T13:33:07;99092.56;;;22.19;62.20
25156;BME280;71253;51.496;7.606;2023-10-13T13:38:09;99072.78;;;22.26;62.65
25156;BME280;71253;51.496;7.606;2023-10-13T13:43:11;99079.72;;;22.41;62.48
25156;BME280;71253;51.496;7.606;2023-10-13T13:48:12;99065.94;;;22.50;61.49
25156;BME280;71253;51.496;7.606;2023-10-13T13:53:15;99068.38;;;22.53;60.03
25156;BME280;71253;51.496;7.606;2023-10-13T13:58:16;99063.69;;;22.44;60.65
25156;BME280;71253;51.496;7.606;2023-10-13T14:03:18;99066.66;;;22.25;60.73
25156;BME280;71253;51.496;7.606;2023-10-13T14:08:20;99043.97;;;22.23;58.55
25156;BME280;71253;51.496;7.606;2023-10-13T14:13:21;99057.47;;;22.18;59.08
25156;BME280;71253;51.496;7.606;2023-10-13T14:18:23;99045.13;;;22.04;60.20
25156;BME280;71253;51.496;7.606;2023-10-13T14:23:25;99061.78;;;21.91;60.31
25156;BME280;71253;51.496;7.606;2023-10-13T14:28:26;99050.41;;;21.90;59.75
25156;BME280;71253;51.496;7.606;2023-10-13T14:33:28;99052.84;;;22.22;57.91
25156;BME280;71253;51.496;7.606;2023-10-13T14:38:29;99051.25;;;22.19;58.30
25156;BME280;71253;51.496;7.606;2023-10-13T14:43:31;99053.22;;;22.01;58.43
25156;BME280;71253;51.496;7.606;2023-10-13T14:48:32;99035.91;;;22.12;57.98
25156;BME280;71253;51.496;7.606;2023-10-13T14:53:37;99040.91;;;22.02;58.07
25156;BME280;71253;51.496;7.606;2023-10-13T14:58:39;99024.44;;;21.84;58.71
25156;BME280;71253;51.496;7.606;2023-10-13T15:03:46;99030.84;;;21.80;58.02
25156;BME280;71253;51.496;7.606;2023-10-13T15:08:48;99025.69;;;21.64;60.31
25156;BME280;71253;51.496;7.606;2023-10-13T15:13:50;99040.72;;;21.48;58.96
25156;BME280;71253;51.496;7.606;2023-10-13T15:18:52;99009.63;;;21.55;58.81
25156;BME280;71253;51.496;7.606;2023-10-13T15:23:54;99023.34;;;21.45;59.80
25156;BME280;71253;51.496;7.606;2023-10-13T15:28:57;99022.75;;;21.40;59.50
25156;BME280;71253;51.496;7.606;2023-10-13T15:34:00;99013.13;;;21.25;60.84
25156;BME280;71253;51.496;7.606;2023-10-13T15:39:02;99009.00;;;21.21;61.60
25156;BME280;71253;51.496;7.606;2023-10-13T15:44:04;99008.81;;;21.24;60.39
25156;BME280;71253;51.496;7.606;2023-10-13T15:49:06;99009.75;;;21.23;60.79
25156;BME280;71253;51.496;7.606;2023-10-13T15:54:13;99018.75;;;21.19;60.16
25156;BME280;71253;51.496;7.606;2023-10-13T15:59:17;99005.88;;;21.14;59.89
25156;BME280;71253;51.496;7.606;2023-10-13T16:04:18;99021.72;;;20.98;60.61
25156;BME280;71253;51.496;7.606;2023-10-13T16:09:20;99024.34;;;20.98;59.79
25156;BME280;71253;51.496;7.606;2023-10-13T16:14:21;99007.50;;;20.87;61.22
25156;BME280;71253;51.496;7.606;2023-10-13T16:19:23;99022.78;;;20.80;61.27
25156;BME280;71253;51.496;7.606;2023-10-13T16:24:25;99018.06;;;20.71;61.24
25156;BME280;71253;51.496;7.606;2023-10-13T16:29:27;99017.41;;;20.67;60.44
25156;BME280;71253;51.496;7.606;2023-10-13T16:34:28;99010.13;;;20.57;61.52
25156;BME280;71253;51.496;7.606;2023-10-13T16:39:30;99006.94;;;20.52;62.49
25156;BME280;71253;51.496;7.606;2023-10-13T16:44:32;99009.56;;;20.52;61.67
25156;BME280;71253;51.496;7.606;2023-10-13T16:49:33;99012.56;;;20.44;61.74
25156;BME280;71253;51.496;7.606;2023-10-13T16:54:38;99003.84;;;20.43;61.62
25156;BME280;71253;51.496;7.606;2023-10-13T16:59:39;98999.72;;;20.39;62.15
25156;BME280;71253;51.496;7.606;2023-10-13T17:04:41;98991.84;;;20.23;62.35
25156;BME280;71253;51.496;7.606;2023-10-13T17:09:43;98996.56;;;20.17;63.35
25156;BME280;71253;51.496;7.606;2023-10-13T17:14:44;98995.81;;;19.99;64.77
25156;BME280;71253;51.496;7.606;2023-10-13T17:19:46;98996.50;;;19.87;64.23
25156;BME280;71253;51.496;7.606;2023-10-13T17:24:47;98992.53;;;19.80;65.50
25156;BME280;71253;51.496;7.606;2023-10-13T17:29:49;99002.47;;;19.73;64.87
25156;BME280;71253;51.496;7.606;2023-10-13T17:34:50;98986.75;;;19.73;65.20
25156;BME280;71253;51.496;7.606;2023-10-13T17:39:52;98991.19;;;19.55;66.95
25156;BME280;71253;51.496;7.606;2023-10-13T17:44:54;98979.38;;;19.31;69.40
25156;BME280;71253;51.496;7.606;2023-10-13T17:49:55;98968.84;;;19.15;70.67
25156;BME280;71253;51.496;7.606;2023-10-13T17:54:57;98953.63;;;19.22;70.01
25156;BME280;71253;51.496;7.606;2023-10-13T18:00:00;98949.47;;;19.17;71.08
25156;BME280;71253;51.496;7.606;2023-10-13T18:05:05;98959.72;;;19.22;70.97
25156;BME280;71253;51.496;7.606;2023-10-13T18:10:08;98951.56;;;19.11;72.67
25156;BME280;71253;51.496;7.606;2023-10-13T18:15:11;98944.03;;;18.70;74.90
25156;BME280;71253;51.496;7.606;2023-10-13T18:20:13;98950.03;;;18.55;75.23
25156;BME280;71253;51.496;7.606;2023-10-13T18:25:14;98950.16;;;18.52;76.70
25156;BME280;71253;51.496;7.606;2023-10-13T18:30:16;98936.53;;;18.45;76.18
25156;BME280;71253;51.496;7.606;2023-10-13T18:35:17;98935.84;;;18.42;77.77
25156;BME280;71253;51.496;7.606;2023-10-13T18:40:19;98925.34;;;18.42;77.39
25156;BME280;71253;51.496;7.606;2023-10-13T18:45:21;98916.88;;;18.36;77.94
25156;BME280;71253;51.496;7.606;2023-10-13T18:50:22;98910.97;;;18.50;76.46
25156;BME280;71253;51.496;7.606;2023-10-13T18:55:24;98908.13;;;18.55;76.69
25156;BME280;71253;51.496;7.606;2023-10-13T19:00:25;98897.00;;;18.67;75.01
25156;BME280;71253;51.496;7.606;2023-10-13T19:05:27;98906.88;;;18.62;75.74
25156;BME280;71253;51.496;7.606;2023-10-13T19:10:28;98904.56;;;18.56;76.57
25156;BME280;71253;51.496;7.606;2023-10-13T19:15:36;98910.25;;;18.47;77.47
25156;BME280;71253;51.496;7.606;2023-10-13T19:20:39;98890.78;;;18.52;76.67
25156;BME280;71253;51.496;7.606;2023-10-13T19:25:44;98880.78;;;18.43;77.58
25156;BME280;71253;51.496;7.606;2023-10-13T19:30:45;98875.28;;;18.30;78.29
25156;BME280;71253;51.496;7.606;2023-10-13T19:35:47;98858.13;;;18.25;79.13
25156;BME280;71253;51.496;7.606;2023-10-13T19:40:49;98835.41;;;18.25;79.29
25156;BME280;71253;51.496;7.606;2023-10-13T19:45:50;98820.75;;;18.21;79.48
25156;BME280;71253;51.496;7.606;2023-10-13T19:50:52;98831.47;;;17.99;82.39
25156;BME280;71253;51.496;7.606;2023-10-13T19:55:54;98817.28;;;17.86;82.39
25156;BME280;71253;51.496;7.606;2023-10-13T20:00:55;98807.38;;;17.93;81.81
25156;BME280;71253;51.496;7.606;2023-10-13T20:05:57;98811.00;;;17.90;82.37
25156;BME280;71253;51.496;7.606;2023-10-13T20:11:10;98822.00;;;18.14;80.24
25156;BME280;71253;51.496;7.606;2023-10-13T20:16:16;98818.94;;;18.23;79.71
25156;BME280;71253;51.496;7.606;2023-10-13T20:21:18;98827.94;;;18.18;81.62
25156;BME280;71253;51.496;7.606;2023-10-13T20:26:22;98824.38;;;17.84;84.24
25156;BME280;71253;51.496;7.606;2023-10-13T20:31:24;98832.66;;;17.56;87.83
25156;BME280;71253;51.496;7.606;2023-10-13T20:36:26;98850.72;;;17.24;91.73
25156;BME280;71253;51.496;7.606;2023-10-13T20:41:27;98845.34;;;17.08;93.11
25156;BME280;71253;51.496;7.606;2023-10-13T20:46:29;98819.19;;;16.90;96.65
25156;BME280;71253;51.496;7.606;2023-10-13T20:51:32;98810.66;;;17.05;93.14
25156;BME280;71253;51.496;7.606;2023-10-13T20:56:33;98800.19;;;17.05;93.17
25156;BME280;71253;51.496;7.606;2023-10-13T21:01:35;98785.72;;;16.98;95.01
25156;BME280;71253;51.496;7.606;2023-10-13T21:06:37;98786.41;;;17.01;94.16
25156;BME280;71253;51.496;7.606;2023-10-13T21:11:41;98784.53;;;17.05;93.80
25156;BME280;71253;51.496;7.606;2023-10-13T21:16:43;98779.47;;;17.02;94.10
25156;BME280;71253;51.496;7.606;2023-10-13T21:21:44;98758.09;;;17.11;92.56
25156;BME280;71253;51.496;7.606;2023-10-13T21:26:46;98750.84;;;16.99;94.96
25156;BME280;71253;51.496;7.606;2023-10-13T21:31:48;98732.28;;;16.86;96.06
25156;BME280;71253;51.496;7.606;2023-10-13T21:36:49;98739.41;;;16.82;95.62
25156;BME280;71253;51.496;7.606;2023-10-13T21:41:51;98727.81;;;16.88;94.98
25156;BME280;71253;51.496;7.606;2023-10-13T21:46:52;98718.84;;;16.94;93.98
25156;BME280;71253;51.496;7.606;2023-10-13T21:51:54;98696.59;;;17.04;92.55
25156;BME280;71253;51.496;7.606;2023-10-13T21:56:56;98692.56;;;17.16;91.47
25156;BME280;71253;51.496;7.606;2023-10-13T22:02:01;98698.41;;;17.21;91.15
25156;BME280;71253;51.496;7.606;2023-10-13T22:07:02;98690.75;;;17.35;89.69
25156;BME280;71253;51.496;7.606;2023-10-13T22:12:04;98695.28;;;17.49;88.71
25156;BME280;71253;51.496;7.606;2023-10-13T22:17:06;98690.69;;;17.54;88.78
25156;BME280;71253;51.496;7.606;2023-10-13T22:22:08;98683.16;;;17.65;87.50
25156;BME280;71253;51.496;7.606;2023-10-13T22:27:12;98680.50;;;17.84;86.40
25156;BME280;71253;51.496;7.606;2023-10-13T22:32:15;98673.63;;;17.81;86.79
25156;BME280;71253;51.496;7.606;2023-10-13T22:37:17;98671.81;;;17.83;86.39
25156;BME280;71253;51.496;7.606;2023-10-13T22:42:19;98674.88;;;17.74;87.66
25156;BME280;71253;51.496;7.606;2023-10-13T22:47:20;98669.00;;;17.69;88.35
25156;BME280;71253;51.496;7.606;2023-10-13T22:52:22;98667.09;;;17.90;86.45
25156;BME280;71253;51.496;7.606;2023-10-13T22:57:23;98665.16;;;17.76;87.91
25156;BME280;71253;51.496;7.606;2023-10-13T23:02:25;98651.25;;;17.76;87.15
25156;BME280;71253;51.496;7.606;2023-10-13T23:07:27;98651.00;;;17.80;86.96
25156;BME280;71253;51.496;7.606;2023-10-13T23:12:28;98626.72;;;17.78;86.32
25156;BME280;71253;51.496;7.606;2023-10-13T23:17:30;98638.88;;;17.79;86.34
25156;BME280;71253;51.496;7.606;2023-10-13T23:22:31;98637.59;;;17.69;85.96
25156;BME280;71253;51.496;7.606;2023-10-13T23:27:33;98632.78;;;17.79;84.97
25156;BME280;71253;51.496;7.606;2023-10-13T23:32:34;98607.69;;;17.57;86.24
25156;BME280;71253;51.496;7.606;2023-10-13T23:37:36;98604.16;;;17.58;85.81
25156;BME280;71253;51.496;7.606;2023-10-13T23:42:37;98591.47;;;17.68;84.85
25156;BME280;71253;51.496;7.606;2023-10-13T23:47:39;98597.00;;;17.62;85.80
25156;BME280;71253;51.496;7.606;2023-10-13T23:52:41;98592.16;;;17.54;87.01
25156;BME280;71253;51.496;7.606;2023-10-13T23:57:42;98589.44;;;17.56;86.57
